Time;durP1;ratioP1;P1;durP2;ratioP2;P2;SDS_P1;SDS_P2;PMS_P1;PMS_P2;Temp;Humidity;BMP_temperature;BMP_pressure;BME280_temperature;BME280_humidity;BME280_pressure;Samples;Min_cycle;Max_cycle;Signal;HPM_P1;HPM_P2
2022/08/15 00:00:52;;;;;;;6.65;4.72;;;23.50;99.90;;;;;;5053385;28;20028;-73
2022/08/15 00:03:28;;;;;;;11.23;5.85;;;23.50;99.90;;;;;;5047637;28;20385;-73
2022/08/15 00:06:00;;;;;;;6.72;5.65;;;23.30;99.90;;;;;;5038163;28;20040;-73
2022/08/15 00:08:28;;;;;;;9.38;5.53;;;23.30;99.90;;;;;;5043889;28;20033;-72
2022/08/15 00:10:57;;;;;;;7.50;5.45;;;23.20;99.90;;;;;;5047741;28;20025;-74
2022/08/15 00:13:28;;;;;;;5.65;5.07;;;23.20;99.90;;;;;;5044302;28;20120;-73
2022/08/15 00:15:55;;;;;;;7.03;5.68;;;23.10;99.90;;;;;;5043284;28;20021;-72
2022/08/15 00:18:24;;;;;;;7.22;5.28;;;23.10;99.90;;;;;;5040373;28;20017;-73
2022/08/15 00:20:51;;;;;;;6.50;5.78;;;23.10;99.90;;;;;;5039474;28;20036;-73
2022/08/15 00:23:20;;;;;;;6.70;5.93;;;23.10;99.90;;;;;;5050589;28;20120;-72
2022/08/15 00:25:47;;;;;;;10.75;6.07;;;;;;;;;;5041603;28;20546;-73
2022/08/15 00:28:13;;;;;;;7.03;5.97;;;;;;;;;;5048544;28;20165;-73
2022/08/15 00:30:40;;;;;;;7.90;5.60;;;23.00;99.90;;;;;;5045372;28;20029;-74
2022/08/15 00:33:06;;;;;;;6.80;5.60;;;;;;;;;;5048096;28;20048;-72
2022/08/15 00:35:36;;;;;;;9.23;5.47;;;22.60;99.90;;;;;;5034406;28;20052;-72
2022/08/15 00:38:02;;;;;;;8.82;6.07;;;;;;;;;;5045436;28;20025;-72
2022/08/15 00:40:28;;;;;;;6.25;5.65;;;;;;;;;;5040858;28;20061;-73
2022/08/15 00:42:54;;;;;;;6.30;5.70;;;;;;;;;;5044425;28;20068;-73
2022/08/15 00:45:21;;;;;;;6.35;5.60;;;;;;;;;;5063061;28;20100;-73
2022/08/15 00:48:41;;;;;;;7.80;5.93;;;;;;;;;;5072428;28;20037;-72
2022/08/15 00:50:34;;;;;;;9.30;6.03;;;;;;;;;;5073453;28;20081;-72
2022/08/15 00:53:02;;;;;;;7.93;5.85;;;;;;;;;;5072742;28;20533;-72
2022/08/15 00:55:29;;;;;;;8.48;6.25;;;;;;;;;;5055036;28;20047;-72
2022/08/15 00:57:55;;;;;;;9.60;6.03;;;;;;;;;;5062753;28;20055;-73
2022/08/15 01:00:26;;;;;;;9.05;6.30;;;;;;;;;;5047671;28;20028;-73
2022/08/15 01:02:53;;;;;;;11.68;6.28;;;;;;;;;;5063749;28;20040;-74
2022/08/15 01:05:20;;;;;;;10.95;6.97;;;;;;;;;;5062004;28;20036;-73
2022/08/15 01:07:46;;;;;;;7.93;6.40;;;;;;;;;;5055772;28;20021;-73
2022/08/15 01:10:12;;;;;;;8.68;6.00;;;;;;;;;;5052742;28;20110;-72
2022/08/15 01:12:39;;;;;;;6.45;5.47;;;22.50;99.90;;;;;;5060257;28;20482;-73
2022/08/15 01:15:10;;;;;;;9.80;5.80;;;22.20;99.90;;;;;;5063373;28;20024;-72
2022/08/15 01:17:36;;;;;;;7.68;6.35;;;;;;;;;;5065135;28;20132;-72
2022/08/15 01:20:08;;;;;;;6.30;5.65;;;;;;;;;;5048921;28;20028;-73
2022/08/15 01:22:53;;;;;;;7.65;6.22;;;;;;;;;;5059537;28;20088;-73
2022/08/15 01:25:25;;;;;;;8.25;6.05;;;;;;;;;;5064509;28;20372;-72
2022/08/15 01:28:05;;;;;;;8.25;6.30;;;21.90;99.90;;;;;;5053604;28;20040;-73
2022/08/15 01:30:49;;;;;;;7.30;6.60;;;;;;;;;;5052912;28;20491;-72
2022/08/15 01:33:15;;;;;;;7.82;7.03;;;21.90;99.90;;;;;;5063185;28;20037;-72
2022/08/15 01:35:42;;;;;;;9.00;7.03;;;;;;;;;;5055507;28;20036;-73
2022/08/15 01:38:18;;;;;;;8.88;7.07;;;;;;;;;;5040792;28;20040;-72
2022/08/15 01:41:08;;;;;;;10.43;8.05;;;22.00;99.90;;;;;;5065301;28;20039;-72
2022/08/15 01:43:37;;;;;;;9.48;7.80;;;;;;;;;;5029878;28;20063;-72
2022/08/15 01:46:05;;;;;;;10.18;8.40;;;;;;;;;;5063733;28;20507;-73
2022/08/15 01:48:34;;;;;;;10.00;7.90;;;;;;;;;;5058582;28;20025;-72
2022/08/15 01:51:02;;;;;;;9.07;7.72;;;;;;;;;;5062382;28;20063;-72
2022/08/15 01:53:32;;;;;;;9.23;8.10;;;;;;;;;;5058196;28;20617;-72
2022/08/15 01:56:08;;;;;;;11.32;8.88;;;;;;;;;;5039531;28;20078;-72
2022/08/15 01:58:39;;;;;;;9.63;8.02;;;;;;;;;;5057147;28;20056;-72
2022/08/15 02:01:08;;;;;;;13.95;7.60;;;;;;;;;;5064477;28;20444;-73
2022/08/15 02:03:34;;;;;;;10.45;9.35;;;;;;;;;;5058024;28;20476;-74
2022/08/15 02:06:05;;;;;;;12.38;8.93;;;;;;;;;;5061989;28;20032;-74
2022/08/15 02:08:31;;;;;;;10.45;9.15;;;;;;;;;;5043261;28;20025;-73
2022/08/15 02:10:57;;;;;;;15.77;11.20;;;;;;;;;;5051559;28;20021;-73
2022/08/15 02:13:23;;;;;;;14.05;10.25;;;;;;;;;;5055420;28;20040;-73
2022/08/15 02:15:49;;;;;;;15.52;11.10;;;;;;;;;;5061016;28;20040;-74
2022/08/15 02:18:15;;;;;;;12.82;10.55;;;;;;;;;;5052704;28;20032;-75
2022/08/15 02:20:42;;;;;;;12.32;10.88;;;;;;;;;;5051131;28;20064;-73
2022/08/15 02:23:08;;;;;;;15.57;10.63;;;;;;;;;;5042922;28;20082;-72
2022/08/15 02:25:35;;;;;;;14.85;10.60;;;21.60;99.90;;;;;;5064498;28;20059;-73
2022/08/15 02:28:02;;;;;;;14.20;10.70;;;21.60;99.90;;;;;;5059365;28;20036;-73
2022/08/15 02:30:31;;;;;;;11.45;10.35;;;21.50;99.90;;;;;;5062306;28;20024;-73
2022/08/15 02:32:57;;;;;;;15.55;10.55;;;;;;;;;;5057371;28;20060;-73
2022/08/15 02:35:24;;;;;;;12.02;10.60;;;;;;;;;;5067383;28;20470;-73
2022/08/15 02:37:50;;;;;;;13.95;10.55;;;;;;;;;;5065633;28;20020;-73
2022/08/15 02:40:16;;;;;;;12.13;10.55;;;;;;;;;;5054886;28;20163;-72
2022/08/15 02:42:46;;;;;;;11.98;9.98;;;;;;;;;;5058499;28;20492;-72
2022/08/15 02:45:12;;;;;;;11.85;9.98;;;;;;;;;;5070464;28;20133;-72
2022/08/15 02:47:41;;;;;;;11.65;10.45;;;21.40;99.90;;;;;;5061864;28;20419;-72
2022/08/15 02:50:08;;;;;;;13.23;10.40;;;21.50;99.90;;;;;;5051106;28;20033;-73
2022/08/15 02:52:43;;;;;;;11.02;9.90;;;21.50;99.90;;;;;;5035337;28;20033;-72
2022/08/15 02:55:12;;;;;;;13.77;10.57;;;21.30;99.90;;;;;;5051534;28;20383;-72
2022/08/15 02:57:38;;;;;;;10.52;9.48;;;;;;;;;;5043780;28;20456;-74
2022/08/15 03:00:09;;;;;;;10.15;9.05;;;21.50;99.90;;;;;;5067422;28;20464;-76
2022/08/15 03:02:53;;;;;;;14.98;10.07;;;21.50;99.90;;;;;;5053579;28;20029;-75
2022/08/15 03:05:20;;;;;;;12.27;8.88;;;;;;;;;;5067542;28;20032;-74
2022/08/15 03:07:46;;;;;;;11.80;9.93;;;;;;;;;;5047408;28;20040;-75
2022/08/15 03:10:12;;;;;;;11.25;8.95;;;;;;;;;;5068033;28;20396;-73
2022/08/15 03:12:54;;;;;;;11.10;9.30;;;21.80;99.90;;;;;;5057396;28;20031;-75
2022/08/15 03:15:22;;;;;;;10.48;9.38;;;21.60;99.90;;;;;;5057618;28;20021;-73
2022/08/15 03:17:49;;;;;;;12.07;8.82;;;;;;;;;;5053206;28;20102;-74
2022/08/15 03:20:16;;;;;;;9.73;8.73;;;;;;;;;;5049774;28;20033;-72
2022/08/15 03:22:44;;;;;;;11.73;8.40;;;21.80;99.90;;;;;;5068533;28;20455;-73
2022/08/15 03:25:10;;;;;;;11.32;9.00;;;;;;;;;;5065595;28;20451;-74
2022/08/15 03:27:36;;;;;;;11.07;8.48;;;;;;;;;;5065591;28;20350;-73
2022/08/15 03:30:07;;;;;;;13.93;9.02;;;21.70;99.90;;;;;;5070190;28;20082;-74
2022/08/15 03:32:40;;;;;;;10.27;8.23;;;;;;;;;;5054860;28;20135;-74
2022/08/15 03:35:07;;;;;;;10.88;8.10;;;;;;;;;;5065782;28;20082;-73
2022/08/15 03:37:33;;;;;;;8.82;7.93;;;;;;;;;;5052912;28;20123;-74
2022/08/15 03:39:59;;;;;;;11.05;8.68;;;;;;;;;;5040662;28;20041;-73
2022/08/15 03:42:27;;;;;;;9.07;7.57;;;;;;;;;;5070506;28;20647;-73
2022/08/15 03:44:53;;;;;;;9.50;7.38;;;;;;;;;;5059844;28;20088;-73
2022/08/15 03:47:19;;;;;;;12.15;8.18;;;;;;;;;;5058256;28;20084;-73
2022/08/15 03:49:45;;;;;;;9.55;7.50;;;;;;;;;;5067170;28;20033;-74
2022/08/15 03:52:11;;;;;;;8.93;8.02;;;;;;;;;;5053028;28;20028;-74
2022/08/15 03:54:37;;;;;;;12.43;8.65;;;;;;;;;;5062052;28;20032;-74
2022/08/15 03:57:03;;;;;;;11.05;7.75;;;;;;;;;;5073094;28;20039;-74
2022/08/15 03:59:30;;;;;;;11.85;8.77;;;;;;;;;;5055513;28;20027;-73
2022/08/15 04:01:56;;;;;;;8.80;7.97;;;;;;;;;;5067990;28;20110;-74
2022/08/15 04:04:22;;;;;;;11.10;8.55;;;;;;;;;;5055623;28;20067;-74
2022/08/15 04:06:48;;;;;;;9.88;8.77;;;;;;;;;;5056813;28;20439;-73
2022/08/15 04:09:14;;;;;;;10.73;7.95;;;;;;;;;;5053834;28;20029;-73
2022/08/15 04:11:40;;;;;;;11.38;8.90;;;;;;;;;;5055356;28;20341;-74
2022/08/15 04:14:06;;;;;;;11.80;9.27;;;;;;;;;;5061026;28;20036;-73
2022/08/15 04:16:32;;;;;;;15.45;10.45;;;;;;;;;;5064020;28;20497;-73
2022/08/15 04:18:59;;;;;;;15.02;10.73;;;;;;;;;;5060423;28;20033;-73
2022/08/15 04:21:25;;;;;;;13.80;10.23;;;;;;;;;;5059241;28;20033;-73
2022/08/15 04:23:51;;;;;;;12.35;10.45;;;;;;;;;;5070906;28;20035;-73
2022/08/15 04:26:18;;;;;;;13.95;10.88;;;;;;;;;;5069170;28;20040;-73
2022/08/15 04:28:44;;;;;;;12.82;10.50;;;;;;;;;;5062743;28;20048;-73
2022/08/15 04:31:11;;;;;;;10.55;9.45;;;;;;;;;;5053333;28;20040;-74
2022/08/15 04:33:38;;;;;;;12.05;10.80;;;;;;;;;;5053734;28;20041;-74
2022/08/15 04:36:10;;;;;;;13.55;10.25;;;;;;;;;;5070571;28;20037;-74
2022/08/15 04:38:40;;;;;;;13.38;10.32;;;;;;;;;;5049410;28;20024;-74
2022/08/15 04:41:07;;;;;;;13.98;9.98;;;;;;;;;;5047673;28;20029;-74
2022/08/15 04:43:33;;;;;;;11.05;9.95;;;;;;;;;;5033657;28;20142;-74
2022/08/15 04:46:00;;;;;;;14.68;10.75;;;;;;;;;;5056597;28;20033;-74
2022/08/15 04:48:26;;;;;;;12.18;10.93;;;;;;;;;;5070780;28;20604;-74
2022/08/15 04:50:53;;;;;;;12.55;11.23;;;;;;;;;;5054428;28;20419;-73
2022/08/15 04:53:21;;;;;;;14.25;11.15;;;;;;;;;;5044265;28;20040;-74
2022/08/15 04:55:49;;;;;;;15.93;12.13;;;;;;;;;;5066845;28;20060;-75
2022/08/15 04:58:15;;;;;;;13.55;11.52;;;;;;;;;;5059233;28;20086;-75
2022/08/15 05:00:43;;;;;;;16.15;12.23;;;;;;;;;;5067808;28;20030;-75
2022/08/15 05:03:09;;;;;;;18.55;12.48;;;;;;;;;;5057075;28;20049;-79
2022/08/15 05:05:38;;;;;;;21.52;16.67;;;;;;;;;;5064158;28;20381;-76
2022/08/15 05:08:05;;;;;;;18.98;15.57;;;;;;;;;;5052362;28;20025;-77
2022/08/15 05:10:32;;;;;;;20.17;13.13;;;;;;;;;;5045801;28;20502;-75
2022/08/15 05:13:07;;;;;;;18.25;11.45;;;;;;;;;;5068000;28;20089;-76
2022/08/15 05:15:33;;;;;;;16.88;10.43;;;;;;;;;;5064048;28;20375;-75
2022/08/15 05:18:00;;;;;;;14.98;10.98;;;;;;;;;;5069144;28;20099;-76
2022/08/15 05:20:26;;;;;;;13.88;10.38;;;;;;;;;;5064532;28;20040;-78
2022/08/15 05:22:54;;;;;;;16.70;9.77;;;;;;;;;;5072440;28;20060;-74
2022/08/15 05:25:20;;;;;;;11.60;9.15;;;;;;;;;;5070255;28;20084;-73
2022/08/15 05:27:47;;;;;;;10.55;9.25;;;;;;;;;;5078540;28;20480;-78
2022/08/15 05:30:14;;;;;;;10.82;9.43;;;;;;;;;;5061458;28;20491;-74
2022/08/15 05:32:39;;;;;;;13.63;9.20;;;;;;;;;;5035676;28;20053;-74
2022/08/15 05:35:06;;;;;;;10.05;9.00;;;;;;;;;;5066087;28;20063;-74
2022/08/15 05:37:32;;;;;;;12.93;8.23;;;;;;;;;;5044764;28;20051;-78
2022/08/15 05:39:59;;;;;;;12.68;9.13;;;;;;;;;;5069303;28;20025;-74
2022/08/15 05:42:45;;;;;;;12.38;9.93;;;21.60;99.90;;;;;;5049824;28;20156;-74
2022/08/15 05:45:17;;;;;;;11.57;8.45;;;21.90;99.90;;;;;;5062007;28;20564;-75
2022/08/15 05:47:57;;;;;;;9.55;8.45;;;21.90;99.90;;;;;;5067470;28;20024;-73
2022/08/15 05:50:37;;;;;;;11.88;8.63;;;21.90;99.90;;;;;;5036897;28;20439;-75
2022/08/15 05:53:12;;;;;;;9.70;8.13;;;22.20;99.90;;;;;;5051990;28;20029;-73
2022/08/15 05:55:43;;;;;;;18.70;11.02;;;22.20;99.90;;;;;;5054923;28;20108;-74
2022/08/15 05:58:29;;;;;;;22.92;18.38;;;22.40;99.90;;;;;;5063827;28;20050;-77
2022/08/15 06:01:09;;;;;;;10.25;8.23;;;22.20;99.90;;;;;;5062089;28;20059;-74
2022/08/15 06:03:37;;;;;;;9.80;8.65;;;;;;;;;;5061864;28;20032;-74
2022/08/15 06:06:12;;;;;;;9.07;7.68;;;22.50;99.90;;;;;;5068836;28;20033;-79
2022/08/15 06:08:48;;;;;;;9.57;7.82;;;22.70;99.90;;;;;;5050146;28;20362;-77
2022/08/15 06:11:32;;;;;;;11.85;8.60;;;22.70;99.90;;;;;;5053938;28;20474;-79
2022/08/15 06:14:06;;;;;;;12.23;7.53;;;22.60;99.90;;;;;;5057861;28;20037;-79
2022/08/15 06:16:38;;;;;;;8.82;7.43;;;22.80;99.90;;;;;;5068380;28;20496;-77
2022/08/15 06:19:07;;;;;;;10.10;8.05;;;22.70;99.90;;;;;;5075939;28;20090;-78
2022/08/15 06:21:33;;;;;;;20.08;14.70;;;;;;;;;;5062612;28;20037;-80
2022/08/15 06:24:08;;;;;;;11.73;8.30;;;23.00;99.90;;;;;;5061984;28;20029;-78
2022/08/15 06:26:58;;;;;;;11.45;8.57;;;22.80;99.90;;;;;;5068517;28;20032;-80
2022/08/15 06:29:54;;;;;;;10.90;7.93;;;22.90;99.90;;;;;;5053072;28;20043;-78
2022/08/15 06:32:20;;;;;;;9.95;7.53;;;;;;;;;;5060990;28;20052;-78
2022/08/15 06:35:02;;;;;;;8.93;7.85;;;23.00;99.90;;;;;;5053249;28;20067;-80
2022/08/15 06:37:28;;;;;;;12.57;8.43;;;;;;;;;;5041620;28;20052;-80
2022/08/15 06:39:54;;;;;;;10.80;7.72;;;;;;;;;;5052419;28;20082;-78
2022/08/15 06:42:41;;;;;;;10.07;8.80;;;23.40;99.90;;;;;;5056257;28;20021;-77
2022/08/15 06:45:23;;;;;;;8.75;7.85;;;;;;;;;;5060772;28;20061;-79
2022/08/15 06:47:52;;;;;;;9.95;8.02;;;;;;;;;;5065662;28;20048;-76
2022/08/15 06:50:23;;;;;;;9.48;8.48;;;23.50;99.90;;;;;;5067794;28;20035;-78
2022/08/15 06:52:54;;;;;;;7.95;7.15;;;23.70;99.90;;;;;;5064343;28;20089;-77
2022/08/15 06:55:21;;;;;;;11.18;8.60;;;;;;;;;;5058452;28;20043;-79
2022/08/15 06:57:55;;;;;;;10.18;8.20;;;;;;;;;;5042657;28;20025;-78
2022/08/15 07:00:46;;;;;;;9.43;8.43;;;24.00;99.90;;;;;;5055892;28;20021;-77
2022/08/15 07:03:12;;;;;;;12.50;8.20;;;;;;;;;;5068637;28;20037;-77
2022/08/15 07:05:51;;;;;;;15.48;7.65;;;24.00;99.90;;;;;;5059393;28;20032;-77
2022/08/15 07:08:27;;;;;;;10.48;8.25;;;;;;;;;;5067002;28;20028;-79
2022/08/15 07:11:15;;;;;;;11.82;8.02;;;24.10;99.90;;;;;;5046920;28;20047;-78
2022/08/15 07:14:06;;;;;;;8.50;7.68;;;24.10;99.90;;;;;;5064757;28;20124;-77
2022/08/15 07:16:38;;;;;;;13.40;11.73;;;;;;;;;;5054410;28;20093;-79
2022/08/15 07:19:04;;;;;;;;;;;24.30;99.90;;;;;;5059903;28;20032;-79
2022/08/15 07:21:30;;;;;;;8.02;6.82;;;;;;;;;;5055816;28;19928;-81
2022/08/15 07:23:59;;;;;;;9.93;7.15;;;;;;;;;;5056606;28;20116;-81
2022/08/15 07:26:28;;;;;;;9.95;7.60;;;;;;;;;;5055194;28;20040;-78
2022/08/15 07:28:58;;;;;;;8.23;7.45;;;24.70;99.90;;;;;;5076231;28;20032;-78
2022/08/15 07:31:33;;;;;;;11.60;8.52;;;25.00;99.90;;;;;;5064864;28;20380;-81
2022/08/15 07:34:05;;;;;;;9.98;8.10;;;24.90;99.90;;;;;;5063896;28;20425;-77
2022/08/15 07:36:33;;;;;;;10.15;6.88;;;;;;;;;;5069967;28;20036;-79
2022/08/15 07:39:19;;;;;;;9.35;7.28;;;25.20;99.90;;;;;;5066220;28;20494;-76
2022/08/15 07:41:47;;;;;;;8.45;7.30;;;;;;;;;;5067879;28;20033;-76
2022/08/15 07:44:20;;;;;;;8.80;7.10;;;25.70;99.90;;;;;;5039000;28;20044;-76
2022/08/15 07:46:54;;;;;;;12.43;7.50;;;25.70;99.90;;;;;;5061043;28;20078;-77
2022/08/15 07:49:25;;;;;;;8.10;7.32;;;25.70;99.90;;;;;;5066484;28;20024;-77
2022/08/15 07:52:01;;;;;;;9.50;7.75;;;26.00;99.90;;;;;;5058234;28;20104;-80
2022/08/15 07:54:30;;;;;;;12.27;7.28;;;26.10;99.90;;;;;;5063154;28;20105;-76
2022/08/15 07:56:59;;;;;;;9.27;7.57;;;26.10;99.90;;;;;;5065487;28;20048;-76
2022/08/15 07:59:26;;;;;;;10.73;8.00;;;26.40;99.90;;;;;;5078713;28;20037;-77
2022/08/15 08:02:13;;;;;;;11.20;8.02;;;;;;;;;;5062041;28;20043;-77
2022/08/15 08:04:39;;;;;;;8.10;7.18;;;;;;;;;;5057420;28;20452;-81
2022/08/15 08:07:20;;;;;;;8.85;7.40;;;;;;;;;;5042483;28;20036;-77
2022/08/15 08:10:01;;;;;;;10.00;7.78;;;;;;;;;;5047076;28;20036;-77
2022/08/15 08:12:39;;;;;;;8.70;7.82;;;;;;;;;;5072659;28;20034;-77
2022/08/15 08:15:17;;;;;;;10.52;8.80;;;;;;;;;;5075273;28;20401;-78
2022/08/15 08:17:43;;;;;;;10.40;8.60;;;;;;;;;;5046149;28;20036;-75
2022/08/15 08:20:20;;;;;;;9.13;8.15;;;29.00;99.90;;;;;;5060808;28;20110;-76
2022/08/15 08:22:55;;;;;;;11.20;8.63;;;29.20;99.90;;;;;;5068106;28;20052;-73
2022/08/15 08:25:21;;;;;;;10.30;7.85;;;29.30;99.90;;;;;;5056963;28;20068;-73
2022/08/15 08:27:47;;;;;;;9.32;7.70;;;;;;;;;;5072532;28;20060;-73
2022/08/15 08:30:21;;;;;;;8.32;7.53;;;;;;;;;;5063693;28;20024;-73
2022/08/15 08:32:52;;;;;;;8.95;7.88;;;;;;;;;;5071581;28;20035;-74
2022/08/15 08:35:33;;;;;;;10.30;7.22;;;;;;;;;;5056756;28;20017;-73
2022/08/15 08:38:23;;;;;;;8.30;7.50;;;29.90;99.90;;;;;;5071138;28;20460;-73
2022/08/15 08:43:54;;;;;;;10.30;6.55;;;30.50;99.90;;;;;;5065132;28;20131;-72
2022/08/15 08:46:51;;;;;;;8.00;6.65;;;30.80;99.90;;;;;;5063538;28;20029;-71
2022/08/15 08:49:34;;;;;;;7.25;5.82;;;31.10;98.50;;;;;;5069664;28;20024;-70
2022/08/15 08:52:02;;;;;;;8.95;5.78;;;;;;;;;;5057880;28;20060;-75
2022/08/15 08:54:57;;;;;;;7.95;5.57;;;30.90;99.90;;;;;;5057596;28;20060;-71
2022/08/15 08:57:29;;;;;;;5.78;5.20;;;30.80;99.90;;;;;;5068849;28;20027;-72
2022/08/15 09:00:02;;;;;;;6.13;5.35;;;30.80;99.90;;;;;;5055356;28;20090;-72
2022/08/15 09:02:35;;;;;;;5.28;4.78;;;30.70;99.90;;;;;;5087181;28;20543;-72
2022/08/15 09:05:28;;;;;;;6.15;4.50;;;30.70;99.90;;;;;;5053191;28;20041;-72
2022/08/15 09:07:59;;;;;;;7.25;5.85;;;30.80;99.90;;;;;;5065680;28;20055;-72
2022/08/15 09:10:32;;;;;;;6.30;5.25;;;31.40;99.90;;;;;;5060027;28;20032;-72
2022/08/15 09:15:52;;;;;;;10.93;6.95;;;32.50;99.90;;;;;;5056835;28;20098;-70
2022/08/15 09:18:21;;;;;;;7.32;5.85;;;;;;;;;;5060884;28;20035;-71
2022/08/15 09:20:46;;;;;;;8.10;6.13;;;32.80;95.20;;;;;;5065302;28;20032;-70
2022/08/15 09:23:13;;;;;;;7.97;5.93;;;;;;;;;;5069091;28;20131;-72
2022/08/15 09:26:23;;;;;;;5.85;4.53;;;33.10;85.40;;;;;;5061003;28;20039;-72
2022/08/15 09:29:10;;;;;;;4.82;4.32;;;;;;;;;;5051272;28;20207;-73
2022/08/15 09:31:38;;;;;;;10.73;5.05;;;;;;;;;;5046291;28;20469;-73
2022/08/15 09:34:07;;;;;;;6.80;4.50;;;;;;;;;;5065518;28;20040;-72
2022/08/15 09:36:56;;;;;;;6.50;5.13;;;34.30;80.00;;;;;;5067581;28;20079;-73
2022/08/15 09:39:45;;;;;;;5.32;4.55;;;34.60;82.20;;;;;;5060338;28;20069;-72
2022/08/15 09:42:55;;;;;;;5.03;4.57;;;34.30;76.70;;;;;;5052795;28;20059;-72
2022/08/15 09:45:34;;;;;;;5.20;4.70;;;34.10;76.90;;;;;;4996771;28;20034;-73
2022/08/15 09:48:28;;;;;;;5.47;4.50;;;33.90;81.70;;;;;;5003269;28;20117;-73
2022/08/15 09:51:14;;;;;;;4.95;4.35;;;34.20;91.40;;;;;;5041493;28;20492;-73
2022/08/15 09:54:07;;;;;;;4.90;4.50;;;34.10;81.60;;;;;;5059148;28;20673;-72
2022/08/15 09:56:38;;;;;;;6.15;5.47;;;;;;;;;;5066203;28;20037;-73
2022/08/15 09:59:04;;;;;;;;;;;;;;;;;;5059816;28;20342;-72
2022/08/15 10:01:31;;;;;;;5.63;4.93;;;;;;;;;;5066995;28;19915;-72
2022/08/15 10:03:57;;;;;;;9.88;5.47;;;;;;;;;;5053817;28;20059;-72
2022/08/15 10:06:27;;;;;;;6.03;5.40;;;34.10;82.00;;;;;;5060777;28;20057;-73
2022/08/15 10:08:53;;;;;;;7.32;5.53;;;;;;;;;;5062379;28;20344;-73
2022/08/15 10:11:46;;;;;;;6.35;5.55;;;34.50;78.00;;;;;;5055309;28;20035;-74
2022/08/15 10:14:25;;;;;;;6.15;4.88;;;;;;;;;;5021565;28;20041;-77
2022/08/15 10:16:55;;;;;;;6.78;6.05;;;33.90;80.90;;;;;;5059626;28;20032;-73
2022/08/15 10:19:30;;;;;;;6.18;5.57;;;;;;;;;;5056849;28;20104;-72
2022/08/15 10:21:58;;;;;;;11.57;5.57;;;;;;;;;;5075271;28;20052;-72
2022/08/15 10:24:27;;;;;;;5.65;5.10;;;;;;;;;;5041295;28;20037;-71
2022/08/15 10:27:03;;;;;;;6.07;5.47;;;;;;;;;;5055495;28;23572;-73
2022/08/15 10:29:31;;;;;;;6.57;5.70;;;;;;;;;;5047324;28;20831;-73
2022/08/15 10:31:59;;;;;;;9.07;5.78;;;33.00;92.50;;;;;;5054809;28;20016;-73
2022/08/15 10:34:54;;;;;;;11.27;6.55;;;32.80;85.00;;;;;;5057501;28;20045;-72
2022/08/15 10:37:36;;;;;;;7.60;5.22;;;32.30;86.10;;;;;;5053409;28;20473;-72
2022/08/15 10:40:25;;;;;;;6.50;5.60;;;32.10;87.20;;;;;;5052970;28;20485;-73
2022/08/15 10:42:54;;;;;;;9.70;6.40;;;;;;;;;;5054751;28;20045;-74
2022/08/15 10:45:20;;;;;;;7.72;6.88;;;;;;;;;;5069706;28;20539;-73
2022/08/15 10:47:47;;;;;;;13.02;6.47;;;;;;;;;;5071180;28;20029;-73
2022/08/15 10:50:24;;;;;;;8.48;6.22;;;30.70;90.10;;;;;;5043552;28;20037;-73
2022/08/15 10:53:07;;;;;;;10.63;6.82;;;;;;;;;;5063953;28;20020;-72
2022/08/15 10:58:37;;;;;;;10.88;6.68;;;;;;;;;;5044725;28;20083;-73
2022/08/15 11:01:18;;;;;;;9.00;7.65;;;;;;;;;;5047127;28;20045;-73
2022/08/15 11:03:55;;;;;;;12.18;6.95;;;;;;;;;;5066266;28;20102;-73
2022/08/15 11:06:22;;;;;;;7.35;6.50;;;;;;;;;;5051182;28;20578;-74
2022/08/15 11:09:08;;;;;;;7.50;6.32;;;;;;;;;;5047764;28;20047;-73
2022/08/15 11:11:43;;;;;;;7.85;6.35;;;29.80;93.50;;;;;;5059841;28;20029;-73
2022/08/15 11:14:21;;;;;;;7.28;6.40;;;;;;;;;;5051719;28;20049;-73
2022/08/15 11:16:51;;;;;;;12.30;6.50;;;;;;;;;;5055251;28;20029;-72
2022/08/15 11:19:34;;;;;;;13.02;7.60;;;;;;;;;;5057867;28;20067;-71
2022/08/15 11:22:03;;;;;;;11.75;7.65;;;29.50;99.90;;;;;;5054974;28;20503;-72
2022/08/15 11:24:34;;;;;;;10.43;8.60;;;;;;;;;;5048182;28;20053;-72
2022/08/15 11:27:12;;;;;;;11.10;8.05;;;;;;;;;;5049310;28;20033;-72
2022/08/15 11:29:39;;;;;;;10.68;7.53;;;29.30;99.90;;;;;;5066745;28;20045;-71
2022/08/15 11:32:05;;;;;;;8.88;8.13;;;;;;;;;;5055206;28;20071;-72
2022/08/15 11:34:41;;;;;;;10.02;8.73;;;29.60;99.90;;;;;;5050860;28;20436;-71
2022/08/15 11:37:13;;;;;;;12.25;7.97;;;;;;;;;;5058483;28;20094;-72
2022/08/15 11:39:43;;;;;;;10.10;8.88;;;29.80;99.90;;;;;;5063140;28;20013;-71
2022/08/15 11:42:11;;;;;;;10.30;9.27;;;;;;;;;;5048754;28;20106;-72
2022/08/15 11:44:44;;;;;;;12.68;9.90;;;;;;;;;;5036640;28;20059;-73
2022/08/15 11:47:16;;;;;;;14.40;9.82;;;;;;;;;;5045187;28;20037;-71
2022/08/15 11:49:45;;;;;;;14.80;9.30;;;;;;;;;;5035898;28;20021;-71
2022/08/15 11:52:11;;;;;;;13.48;8.80;;;;;;;;;;5035943;28;20026;-74
2022/08/15 11:54:37;;;;;;;13.48;8.57;;;29.70;99.90;;;;;;5044610;28;20053;-71
2022/08/15 11:57:07;;;;;;;12.50;9.73;;;;;;;;;;5038159;28;20105;-71
2022/08/15 11:59:36;;;;;;;13.48;10.13;;;29.70;99.90;;;;;;5039966;28;20578;-71
2022/08/15 12:02:08;;;;;;;14.38;8.38;;;;;;;;;;5047183;28;20025;-72
2022/08/15 12:04:36;;;;;;;12.95;7.38;;;;;;;;;;5047488;28;20064;-72
2022/08/15 12:07:12;;;;;;;11.93;7.95;;;;;;;;;;5047419;28;20039;-72
2022/08/15 12:09:39;;;;;;;12.10;7.75;;;;;;;;;;5042698;28;20026;-72
2022/08/15 12:12:17;;;;;;;11.65;7.68;;;29.40;99.00;;;;;;5042645;28;20017;-76
2022/08/15 12:14:47;;;;;;;10.07;5.57;;;;;;;;;;5032601;28;20564;-71
2022/08/15 12:17:28;;;;;;;12.90;5.70;;;29.30;98.00;;;;;;5045931;28;20021;-72
2022/08/15 12:19:55;;;;;;;6.90;5.80;;;;;;;;;;5032873;28;20044;-71
2022/08/15 12:22:30;;;;;;;9.32;6.40;;;29.00;96.10;;;;;;5052692;28;20021;-72
2022/08/15 12:24:56;;;;;;;8.63;5.75;;;28.90;99.90;;;;;;5035613;28;20033;-72
2022/08/15 12:27:22;;;;;;;9.55;6.10;;;;;;;;;;5044828;28;20029;-73
2022/08/15 12:29:49;;;;;;;6.80;5.82;;;28.80;99.90;;;;;;5037017;28;20032;-72
2022/08/15 12:32:16;;;;;;;10.40;5.97;;;;;;;;;;5051728;28;20393;-76
2022/08/15 12:34:53;;;;;;;11.82;7.05;;;29.20;99.60;;;;;;5044585;28;20477;-76
2022/08/15 12:37:23;;;;;;;8.35;5.97;;;29.10;98.70;;;;;;5071699;28;20032;-73
2022/08/15 12:39:51;;;;;;;10.07;5.80;;;;;;;;;;5040165;28;20103;-72
2022/08/15 12:42:17;;;;;;;12.73;6.05;;;;;;;;;;5050571;28;20577;-76
2022/08/15 12:44:43;;;;;;;7.82;4.97;;;;;;;;;;5047659;28;20087;-72
2022/08/15 12:47:10;;;;;;;10.00;6.00;;;;;;;;;;5052889;28;20044;-71
2022/08/15 12:49:36;;;;;;;11.70;6.75;;;;;;;;;;5060487;28;20016;-72
2022/08/15 12:52:02;;;;;;;8.77;6.68;;;31.00;96.30;;;;;;5044595;28;20513;-72
2022/08/15 12:54:28;;;;;;;7.05;4.53;;;;;;;;;;5051652;28;20044;-71
2022/08/15 12:56:55;;;;;;;11.85;5.45;;;31.40;98.00;;;;;;5045601;28;20384;-72
2022/08/15 12:59:22;;;;;;;10.15;5.53;;;;;;;;;;5052226;28;20036;-71
2022/08/15 13:01:50;;;;;;;6.93;4.97;;;;;;;;;;5048868;28;20036;-72
2022/08/15 13:04:16;;;;;;;7.63;3.60;;;;;;;;;;5045028;28;20052;-72
2022/08/15 13:06:52;;;;;;;4.38;2.95;;;31.60;90.80;;;;;;5051509;28;20385;-74
2022/08/15 13:09:19;;;;;;;4.97;2.97;;;;;;;;;;5034303;28;20119;-71
2022/08/15 13:11:46;;;;;;;7.32;3.10;;;31.70;93.40;;;;;;5050211;28;20025;-72
2022/08/15 13:14:15;;;;;;;7.60;2.85;;;31.40;90.00;;;;;;5050523;28;20040;-72
2022/08/15 13:16:41;;;;;;;6.70;2.95;;;;;;;;;;5045646;28;20057;-72
2022/08/15 13:19:11;;;;;;;5.50;2.55;;;31.30;88.10;;;;;;5053106;28;20032;-72
2022/08/15 13:24:24;;;;;;;6.82;2.55;;;;;;;;;;5043489;28;20048;-75
2022/08/15 13:26:50;;;;;;;3.47;2.40;;;;;;;;;;5050157;28;20033;-72
2022/08/15 13:29:18;;;;;;;3.33;2.47;;;;;;;;;;5044939;28;20366;-72
2022/08/15 13:31:46;;;;;;;7.85;2.63;;;;;;;;;;5045957;28;20362;-71
2022/08/15 13:34:12;;;;;;;6.10;2.47;;;;;;;;;;5037452;28;20037;-74
2022/08/15 13:36:38;;;;;;;7.45;2.58;;;;;;;;;;5036853;28;20025;-72
2022/08/15 13:39:16;;;;;;;4.95;2.83;;;30.90;90.10;;;;;;5046226;28;20033;-73
2022/08/15 13:41:42;;;;;;;3.88;2.30;;;30.50;95.20;;;;;;5050517;28;20505;-73
2022/08/15 13:44:08;;;;;;;6.60;3.40;;;;;;;;;;5041481;28;20056;-73
2022/08/15 13:46:35;;;;;;;2.92;2.00;;;;;;;;;;5053516;28;20037;-72
2022/08/15 13:49:03;;;;;;;3.58;2.00;;;;;;;;;;5064837;28;20043;-71
2022/08/15 13:51:48;;;;;;;4.30;2.00;;;30.80;88.60;;;;;;5060036;28;20094;-70
2022/08/15 13:54:14;;;;;;;2.83;1.85;;;;;;;;;;5048168;28;20127;-70
2022/08/15 13:56:41;;;;;;;7.60;2.25;;;;;;;;;;5051855;28;20078;-70
2022/08/15 13:59:08;;;;;;;3.17;2.00;;;30.70;88.30;;;;;;5064633;28;20099;-71
2022/08/15 14:01:34;;;;;;;2.70;2.10;;;;;;;;;;5065148;28;20067;-70
2022/08/15 14:04:10;;;;;;;5.20;2.15;;;;;;;;;;5061468;28;20094;-70
2022/08/15 14:06:38;;;;;;;4.43;2.30;;;30.70;94.70;;;;;;5056603;28;20027;-70
2022/08/15 14:09:05;;;;;;;6.53;2.90;;;;;;;;;;5033572;28;20497;-71
2022/08/15 14:11:31;;;;;;;4.32;2.83;;;;;;;;;;5039670;28;20173;-70
2022/08/15 14:13:58;;;;;;;4.55;2.80;;;;;;;;;;5068126;28;20124;-71
2022/08/15 14:16:26;;;;;;;6.68;2.38;;;31.20;93.60;;;;;;5058864;28;20071;-69
2022/08/15 14:18:53;;;;;;;6.88;2.38;;;;;;;;;;5070158;28;20490;-68
2022/08/15 14:21:21;;;;;;;3.22;2.17;;;;;;;;;;5057861;28;20103;-70
2022/08/15 14:23:48;;;;;;;2.97;2.30;;;31.20;85.80;;;;;;5048873;28;20032;-71